Saint Johnsbury, Vermont
Current Conditions -  °F | °C
As of 7:52 AM on Tuesday 21 Oct 2014 (Local Time) from KHIE Reporting Station
Light Rain Light Rain  
Wind Chill: 40°   Ceiling: 6000
Heat Index: 40°   Visibility: 10mi
Dew Point: 38°   Wind: 0mph
Humidity: 93%   Direction: NA
Pressure: 29.98"   Gusts: NA
Location:  44.42°N, 72.01°W
Report Text: KHIE 211152Z AUTO 00000KT 10SM -RA OVC060 04/03 A2998 RMK AO2 SLP161 P0001 60004 70004 T00440033 10044 20028 55000
Loading
Personal Weather Stations






























Interactive Weather Map New forecast layout! Learn more

10-Day Weather Forecast

Advertisements
Track Severe Weather on mobile